sensor_id;sensor_type;location;lat;lon;timestamp;P1;durP1;ratioP1;P2;durP2;ratioP2
39788;SDS011;25478;42.626;23.320;2023-01-06T00:01:53;8.53;;;5.10;;
39788;SDS011;25478;42.626;23.320;2023-01-06T00:04:19;9.10;;;4.63;;
39788;SDS011;25478;42.626;23.320;2023-01-06T00:06:44;9.40;;;4.93;;
39788;SDS011;25478;42.626;23.320;2023-01-06T00:09:10;9.40;;;4.97;;
39788;SDS011;25478;42.626;23.320;2023-01-06T00:11:35;7.73;;;4.53;;
39788;SDS011;25478;42.626;23.320;2023-01-06T00:14:01;9.20;;;4.50;;
39788;SDS011;25478;42.626;23.320;2023-01-06T00:16:27;8.60;;;5.13;;
39788;SDS011;25478;42.626;23.320;2023-01-06T00:18:56;11.47;;;5.20;;
39788;SDS011;25478;42.626;23.320;2023-01-06T00:21:24;9.20;;;4.73;;
39788;SDS011;25478;42.626;23.320;2023-01-06T00:23:50;11.93;;;5.20;;
39788;SDS011;25478;42.626;23.320;2023-01-06T00:26:16;9.00;;;5.00;;
39788;SDS011;25478;42.626;23.320;2023-01-06T00:28:43;8.37;;;5.07;;
39788;SDS011;25478;42.626;23.320;2023-01-06T00:31:11;9.03;;;5.13;;
39788;SDS011;25478;42.626;23.320;2023-01-06T00:33:38;9.40;;;5.60;;
39788;SDS011;25478;42.626;23.320;2023-01-06T00:36:06;10.53;;;5.23;;
39788;SDS011;25478;42.626;23.320;2023-01-06T00:38:33;8.53;;;4.97;;
39788;SDS011;25478;42.626;23.320;2023-01-06T00:41:03;12.07;;;5.30;;
39788;SDS011;25478;42.626;23.320;2023-01-06T00:43:53;11.53;;;5.40;;
39788;SDS011;25478;42.626;23.320;2023-01-06T00:46:19;10.33;;;4.87;;
39788;SDS011;25478;42.626;23.320;2023-01-06T00:48:45;10.33;;;5.33;;
39788;SDS011;25478;42.626;23.320;2023-01-06T00:51:11;9.80;;;4.87;;
39788;SDS011;25478;42.626;23.320;2023-01-06T00:53:36;7.50;;;4.87;;
39788;SDS011;25478;42.626;23.320;2023-01-06T00:56:02;9.47;;;5.47;;
39788;SDS011;25478;42.626;23.320;2023-01-06T00:58:31;11.27;;;5.17;;
39788;SDS011;25478;42.626;23.320;2023-01-06T01:00:56;10.70;;;5.13;;
39788;SDS011;25478;42.626;23.320;2023-01-06T01:03:22;7.63;;;5.00;;
39788;SDS011;25478;42.626;23.320;2023-01-06T01:05:48;9.03;;;4.83;;
39788;SDS011;25478;42.626;23.320;2023-01-06T01:08:13;9.00;;;5.50;;
39788;SDS011;25478;42.626;23.320;2023-01-06T01:10:40;8.37;;;5.40;;
39788;SDS011;25478;42.626;23.320;2023-01-06T01:13:05;10.17;;;5.00;;
39788;SDS011;25478;42.626;23.320;2023-01-06T01:15:31;9.70;;;4.77;;
39788;SDS011;25478;42.626;23.320;2023-01-06T01:17:56;8.73;;;4.83;;
39788;SDS011;25478;42.626;23.320;2023-01-06T01:20:22;10.07;;;5.00;;
39788;SDS011;25478;42.626;23.320;2023-01-06T01:22:48;6.57;;;4.23;;
39788;SDS011;25478;42.626;23.320;2023-01-06T01:25:14;9.13;;;5.17;;
39788;SDS011;25478;42.626;23.320;2023-01-06T01:27:39;8.37;;;4.43;;
39788;SDS011;25478;42.626;23.320;2023-01-06T01:30:05;8.23;;;4.97;;
39788;SDS011;25478;42.626;23.320;2023-01-06T01:32:31;11.37;;;4.90;;
39788;SDS011;25478;42.626;23.320;2023-01-06T01:34:56;8.60;;;5.00;;
39788;SDS011;25478;42.626;23.320;2023-01-06T01:37:22;9.73;;;5.27;;
39788;SDS011;25478;42.626;23.320;2023-01-06T01:39:47;6.50;;;4.20;;
39788;SDS011;25478;42.626;23.320;2023-01-06T01:42:17;6.37;;;3.57;;
39788;SDS011;25478;42.626;23.320;2023-01-06T01:45:05;6.77;;;3.50;;
39788;SDS011;25478;42.626;23.320;2023-01-06T01:47:51;6.50;;;3.40;;
39788;SDS011;25478;42.626;23.320;2023-01-06T01:50:23;5.63;;;3.00;;
39788;SDS011;25478;42.626;23.320;2023-01-06T01:52:55;4.73;;;2.50;;
39788;SDS011;25478;42.626;23.320;2023-01-06T01:55:26;4.07;;;2.30;;
39788;SDS011;25478;42.626;23.320;2023-01-06T01:58:05;4.33;;;2.10;;
39788;SDS011;25478;42.626;23.320;2023-01-06T02:00:43;6.93;;;2.57;;
39788;SDS011;25478;42.626;23.320;2023-01-06T02:03:10;3.87;;;2.20;;
39788;SDS011;25478;42.626;23.320;2023-01-06T02:05:38;2.93;;;1.50;;
39788;SDS011;25478;42.626;23.320;2023-01-06T02:11:24;2.60;;;1.20;;
39788;SDS011;25478;42.626;23.320;2023-01-06T02:14:01;1.93;;;1.33;;
39788;SDS011;25478;42.626;23.320;2023-01-06T02:16:40;3.80;;;1.83;;
39788;SDS011;25478;42.626;23.320;2023-01-06T02:22:16;3.53;;;1.80;;
39788;SDS011;25478;42.626;23.320;2023-01-06T02:33:26;5.23;;;2.10;;
39788;SDS011;25478;42.626;23.320;2023-01-06T02:47:11;6.43;;;2.67;;
39788;SDS011;25478;42.626;23.320;2023-01-06T02:55:09;5.90;;;3.10;;
39788;SDS011;25478;42.626;23.320;2023-01-06T03:00:51;5.97;;;3.13;;
39788;SDS011;25478;42.626;23.320;2023-01-06T03:03:22;5.37;;;2.80;;
39788;SDS011;25478;42.626;23.320;2023-01-06T03:05:53;10.57;;;2.90;;
39788;SDS011;25478;42.626;23.320;2023-01-06T03:08:24;5.03;;;2.63;;
39788;SDS011;25478;42.626;23.320;2023-01-06T03:10:53;4.80;;;2.40;;
39788;SDS011;25478;42.626;23.320;2023-01-06T03:13:36;5.63;;;2.63;;
39788;SDS011;25478;42.626;23.320;2023-01-06T03:16:08;5.60;;;3.00;;
39788;SDS011;25478;42.626;23.320;2023-01-06T03:18:34;6.00;;;3.43;;
39788;SDS011;25478;42.626;23.320;2023-01-06T03:21:03;7.67;;;3.23;;
39788;SDS011;25478;42.626;23.320;2023-01-06T03:23:33;7.03;;;3.17;;
39788;SDS011;25478;42.626;23.320;2023-01-06T03:26:02;6.87;;;3.63;;
39788;SDS011;25478;42.626;23.320;2023-01-06T03:28:28;4.20;;;2.43;;
39788;SDS011;25478;42.626;23.320;2023-01-06T03:31:05;5.43;;;3.03;;
39788;SDS011;25478;42.626;23.320;2023-01-06T03:34:02;6.73;;;3.30;;
39788;SDS011;25478;42.626;23.320;2023-01-06T03:39:48;6.03;;;3.20;;
39788;SDS011;25478;42.626;23.320;2023-01-06T03:42:21;6.70;;;3.00;;
39788;SDS011;25478;42.626;23.320;2023-01-06T03:50:34;5.97;;;2.70;;
39788;SDS011;25478;42.626;23.320;2023-01-06T03:53:13;5.87;;;2.83;;
39788;SDS011;25478;42.626;23.320;2023-01-06T03:55:39;5.20;;;2.77;;
39788;SDS011;25478;42.626;23.320;2023-01-06T03:58:16;4.53;;;2.70;;
39788;SDS011;25478;42.626;23.320;2023-01-06T04:00:43;6.33;;;2.50;;
39788;SDS011;25478;42.626;23.320;2023-01-06T04:03:11;4.37;;;2.37;;
39788;SDS011;25478;42.626;23.320;2023-01-06T04:05:39;4.37;;;2.67;;
39788;SDS011;25478;42.626;23.320;2023-01-06T04:08:05;4.33;;;2.80;;
39788;SDS011;25478;42.626;23.320;2023-01-06T04:10:31;6.97;;;2.80;;
39788;SDS011;25478;42.626;23.320;2023-01-06T04:12:57;6.20;;;2.80;;
39788;SDS011;25478;42.626;23.320;2023-01-06T04:17:59;5.60;;;2.80;;
39788;SDS011;25478;42.626;23.320;2023-01-06T04:20:28;4.27;;;2.63;;
39788;SDS011;25478;42.626;23.320;2023-01-06T04:23:01;6.45;;;2.67;;
39788;SDS011;25478;42.626;23.320;2023-01-06T04:25:32;4.57;;;2.97;;
39788;SDS011;25478;42.626;23.320;2023-01-06T04:28:06;4.45;;;2.70;;
39788;SDS011;25478;42.626;23.320;2023-01-06T04:30:32;5.60;;;2.50;;
39788;SDS011;25478;42.626;23.320;2023-01-06T04:32:58;4.03;;;2.30;;
39788;SDS011;25478;42.626;23.320;2023-01-06T04:35:23;5.53;;;2.50;;
39788;SDS011;25478;42.626;23.320;2023-01-06T04:37:49;6.57;;;2.50;;
39788;SDS011;25478;42.626;23.320;2023-01-06T04:40:14;4.77;;;2.83;;
39788;SDS011;25478;42.626;23.320;2023-01-06T04:42:40;5.40;;;2.60;;
39788;SDS011;25478;42.626;23.320;2023-01-06T04:45:24;5.03;;;2.67;;
39788;SDS011;25478;42.626;23.320;2023-01-06T04:47:49;4.97;;;2.50;;
39788;SDS011;25478;42.626;23.320;2023-01-06T04:50:15;4.90;;;2.67;;
39788;SDS011;25478;42.626;23.320;2023-01-06T04:52:40;4.23;;;2.33;;
39788;SDS011;25478;42.626;23.320;2023-01-06T04:55:06;5.23;;;2.80;;
39788;SDS011;25478;42.626;23.320;2023-01-06T04:57:32;7.40;;;3.10;;
39788;SDS011;25478;42.626;23.320;2023-01-06T04:59:58;6.07;;;2.80;;
39788;SDS011;25478;42.626;23.320;2023-01-06T05:02:23;3.33;;;2.13;;
39788;SDS011;25478;42.626;23.320;2023-01-06T05:04:49;6.90;;;3.37;;
39788;SDS011;25478;42.626;23.320;2023-01-06T05:07:14;5.50;;;3.20;;
39788;SDS011;25478;42.626;23.320;2023-01-06T05:09:40;10.47;;;3.50;;
39788;SDS011;25478;42.626;23.320;2023-01-06T05:12:05;8.17;;;3.27;;
39788;SDS011;25478;42.626;23.320;2023-01-06T05:14:31;7.50;;;3.57;;
39788;SDS011;25478;42.626;23.320;2023-01-06T05:16:57;14.80;;;5.70;;
39788;SDS011;25478;42.626;23.320;2023-01-06T05:19:22;11.73;;;4.50;;
39788;SDS011;25478;42.626;23.320;2023-01-06T05:21:47;8.57;;;4.03;;
39788;SDS011;25478;42.626;23.320;2023-01-06T05:24:14;6.23;;;3.00;;
39788;SDS011;25478;42.626;23.320;2023-01-06T05:26:39;5.93;;;3.40;;
39788;SDS011;25478;42.626;23.320;2023-01-06T05:29:05;5.30;;;2.90;;
39788;SDS011;25478;42.626;23.320;2023-01-06T05:31:30;4.77;;;2.40;;
39788;SDS011;25478;42.626;23.320;2023-01-06T05:33:56;5.77;;;2.87;;
39788;SDS011;25478;42.626;23.320;2023-01-06T05:36:21;7.50;;;3.10;;
39788;SDS011;25478;42.626;23.320;2023-01-06T05:38:51;5.87;;;3.27;;
39788;SDS011;25478;42.626;23.320;2023-01-06T05:41:17;5.60;;;2.70;;
39788;SDS011;25478;42.626;23.320;2023-01-06T05:43:43;4.90;;;2.90;;
39788;SDS011;25478;42.626;23.320;2023-01-06T05:46:09;5.47;;;3.30;;
39788;SDS011;25478;42.626;23.320;2023-01-06T05:48:36;4.83;;;2.57;;
39788;SDS011;25478;42.626;23.320;2023-01-06T05:51:02;4.03;;;2.47;;
39788;SDS011;25478;42.626;23.320;2023-01-06T05:53:33;6.07;;;3.10;;
39788;SDS011;25478;42.626;23.320;2023-01-06T05:56:06;5.83;;;2.77;;
39788;SDS011;25478;42.626;23.320;2023-01-06T05:58:33;5.87;;;2.53;;
39788;SDS011;25478;42.626;23.320;2023-01-06T06:00:59;5.60;;;2.53;;
39788;SDS011;25478;42.626;23.320;2023-01-06T06:03:25;5.77;;;2.37;;
39788;SDS011;25478;42.626;23.320;2023-01-06T06:05:51;3.83;;;2.40;;
39788;SDS011;25478;42.626;23.320;2023-01-06T06:08:16;5.27;;;2.57;;
39788;SDS011;25478;42.626;23.320;2023-01-06T06:10:42;6.33;;;2.43;;
39788;SDS011;25478;42.626;23.320;2023-01-06T06:13:07;5.23;;;2.80;;
39788;SDS011;25478;42.626;23.320;2023-01-06T06:15:33;5.40;;;2.97;;
39788;SDS011;25478;42.626;23.320;2023-01-06T06:18:00;5.80;;;2.43;;
39788;SDS011;25478;42.626;23.320;2023-01-06T06:20:29;4.50;;;2.20;;
39788;SDS011;25478;42.626;23.320;2023-01-06T06:22:54;3.93;;;1.73;;
39788;SDS011;25478;42.626;23.320;2023-01-06T06:25:20;4.27;;;1.80;;
39788;SDS011;25478;42.626;23.320;2023-01-06T06:27:45;4.13;;;1.80;;
39788;SDS011;25478;42.626;23.320;2023-01-06T06:30:12;3.93;;;1.97;;
39788;SDS011;25478;42.626;23.320;2023-01-06T06:32:38;4.13;;;1.77;;
39788;SDS011;25478;42.626;23.320;2023-01-06T06:35:04;5.50;;;2.00;;
39788;SDS011;25478;42.626;23.320;2023-01-06T06:37:30;4.07;;;2.30;;
39788;SDS011;25478;42.626;23.320;2023-01-06T06:39:55;4.47;;;2.10;;
39788;SDS011;25478;42.626;23.320;2023-01-06T06:42:20;5.47;;;2.73;;
39788;SDS011;25478;42.626;23.320;2023-01-06T06:44:46;5.83;;;2.60;;
39788;SDS011;25478;42.626;23.320;2023-01-06T06:47:11;5.00;;;2.30;;
39788;SDS011;25478;42.626;23.320;2023-01-06T06:49:38;3.40;;;1.93;;
39788;SDS011;25478;42.626;23.320;2023-01-06T06:52:04;6.97;;;1.87;;
39788;SDS011;25478;42.626;23.320;2023-01-06T06:54:29;3.70;;;2.20;;
39788;SDS011;25478;42.626;23.320;2023-01-06T06:56:54;3.67;;;2.37;;
39788;SDS011;25478;42.626;23.320;2023-01-06T06:59:21;4.73;;;1.87;;
39788;SDS011;25478;42.626;23.320;2023-01-06T07:01:46;3.27;;;1.77;;
39788;SDS011;25478;42.626;23.320;2023-01-06T07:04:12;5.13;;;2.00;;
39788;SDS011;25478;42.626;23.320;2023-01-06T07:06:37;2.93;;;1.70;;
39788;SDS011;25478;42.626;23.320;2023-01-06T07:09:03;5.50;;;1.90;;
39788;SDS011;25478;42.626;23.320;2023-01-06T07:11:28;5.40;;;1.93;;
39788;SDS011;25478;42.626;23.320;2023-01-06T07:13:54;3.90;;;1.90;;
39788;SDS011;25478;42.626;23.320;2023-01-06T07:16:19;3.93;;;2.13;;
39788;SDS011;25478;42.626;23.320;2023-01-06T07:18:47;6.00;;;2.37;;
39788;SDS011;25478;42.626;23.320;2023-01-06T07:21:12;4.43;;;2.07;;
39788;SDS011;25478;42.626;23.320;2023-01-06T07:23:38;5.30;;;2.83;;
39788;SDS011;25478;42.626;23.320;2023-01-06T07:26:05;3.80;;;1.83;;
39788;SDS011;25478;42.626;23.320;2023-01-06T07:28:30;3.03;;;1.80;;
39788;SDS011;25478;42.626;23.320;2023-01-06T07:30:57;4.27;;;1.87;;
39788;SDS011;25478;42.626;23.320;2023-01-06T07:33:22;3.40;;;1.80;;
39788;SDS011;25478;42.626;23.320;2023-01-06T07:35:54;4.23;;;2.10;;
39788;SDS011;25478;42.626;23.320;2023-01-06T07:38:21;3.93;;;1.80;;
39788;SDS011;25478;42.626;23.320;2023-01-06T07:40:47;3.60;;;1.73;;
39788;SDS011;25478;42.626;23.320;2023-01-06T07:43:13;4.20;;;1.63;;
39788;SDS011;25478;42.626;23.320;2023-01-06T07:45:38;2.73;;;1.57;;
39788;SDS011;25478;42.626;23.320;2023-01-06T07:48:04;5.63;;;1.90;;
39788;SDS011;25478;42.626;23.320;2023-01-06T07:50:30;2.73;;;1.50;;
39788;SDS011;25478;42.626;23.320;2023-01-06T07:52:56;2.40;;;1.50;;
39788;SDS011;25478;42.626;23.320;2023-01-06T07:55:23;3.47;;;1.60;;
39788;SDS011;25478;42.626;23.320;2023-01-06T07:57:48;2.70;;;1.60;;
39788;SDS011;25478;42.626;23.320;2023-01-06T08:00:14;3.60;;;2.03;;
39788;SDS011;25478;42.626;23.320;2023-01-06T08:02:40;4.40;;;2.00;;
39788;SDS011;25478;42.626;23.320;2023-01-06T08:05:05;6.23;;;1.67;;
39788;SDS011;25478;42.626;23.320;2023-01-06T08:07:31;4.13;;;1.93;;
39788;SDS011;25478;42.626;23.320;2023-01-06T08:09:57;3.27;;;1.87;;
39788;SDS011;25478;42.626;23.320;2023-01-06T08:12:22;3.33;;;1.60;;
39788;SDS011;25478;42.626;23.320;2023-01-06T08:14:47;4.17;;;1.73;;
39788;SDS011;25478;42.626;23.320;2023-01-06T08:17:13;3.80;;;1.83;;
39788;SDS011;25478;42.626;23.320;2023-01-06T08:19:38;5.33;;;2.10;;
39788;SDS011;25478;42.626;23.320;2023-01-06T08:22:04;4.10;;;1.83;;
39788;SDS011;25478;42.626;23.320;2023-01-06T08:24:30;5.07;;;2.37;;
39788;SDS011;25478;42.626;23.320;2023-01-06T08:26:56;3.30;;;1.67;;
39788;SDS011;25478;42.626;23.320;2023-01-06T08:29:22;3.47;;;1.60;;
39788;SDS011;25478;42.626;23.320;2023-01-06T08:31:48;3.77;;;1.73;;
39788;SDS011;25478;42.626;23.320;2023-01-06T08:34:14;3.97;;;1.50;;
39788;SDS011;25478;42.626;23.320;2023-01-06T08:36:40;4.10;;;1.80;;
39788;SDS011;25478;42.626;23.320;2023-01-06T08:39:09;4.57;;;1.70;;
39788;SDS011;25478;42.626;23.320;2023-01-06T08:41:36;3.07;;;1.60;;
39788;SDS011;25478;42.626;23.320;2023-01-06T08:44:02;5.40;;;2.20;;
39788;SDS011;25478;42.626;23.320;2023-01-06T08:46:27;3.23;;;1.80;;
39788;SDS011;25478;42.626;23.320;2023-01-06T08:48:54;4.87;;;1.70;;
39788;SDS011;25478;42.626;23.320;2023-01-06T08:51:21;3.77;;;1.80;;
39788;SDS011;25478;42.626;23.320;2023-01-06T08:53:47;8.50;;;3.10;;
39788;SDS011;25478;42.626;23.320;2023-01-06T08:56:14;4.57;;;2.17;;
39788;SDS011;25478;42.626;23.320;2023-01-06T08:58:44;4.23;;;1.87;;
39788;SDS011;25478;42.626;23.320;2023-01-06T09:01:20;5.07;;;1.50;;
39788;SDS011;25478;42.626;23.320;2023-01-06T09:03:47;4.50;;;2.30;;
39788;SDS011;25478;42.626;23.320;2023-01-06T09:06:13;4.40;;;2.40;;
39788;SDS011;25478;42.626;23.320;2023-01-06T09:08:39;3.70;;;1.90;;
39788;SDS011;25478;42.626;23.320;2023-01-06T09:11:04;3.77;;;1.60;;
39788;SDS011;25478;42.626;23.320;2023-01-06T09:13:31;6.60;;;2.20;;
39788;SDS011;25478;42.626;23.320;2023-01-06T09:15:57;4.03;;;1.90;;
39788;SDS011;25478;42.626;23.320;2023-01-06T09:18:22;3.93;;;1.93;;
39788;SDS011;25478;42.626;23.320;2023-01-06T09:20:48;5.33;;;2.47;;
39788;SDS011;25478;42.626;23.320;2023-01-06T09:23:14;3.80;;;1.90;;
39788;SDS011;25478;42.626;23.320;2023-01-06T09:25:39;4.30;;;2.23;;
39788;SDS011;25478;42.626;23.320;2023-01-06T09:28:05;5.30;;;2.33;;
39788;SDS011;25478;42.626;23.320;2023-01-06T09:30:30;6.90;;;3.20;;
39788;SDS011;25478;42.626;23.320;2023-01-06T09:32:56;4.33;;;2.23;;
39788;SDS011;25478;42.626;23.320;2023-01-06T09:35:21;5.90;;;1.70;;
39788;SDS011;25478;42.626;23.320;2023-01-06T09:37:47;4.07;;;1.90;;
39788;SDS011;25478;42.626;23.320;2023-01-06T09:40:17;4.00;;;1.90;;
39788;SDS011;25478;42.626;23.320;2023-01-06T09:42:51;3.35;;;1.90;;
39788;SDS011;25478;42.626;23.320;2023-01-06T09:45:35;6.10;;;1.93;;
39788;SDS011;25478;42.626;23.320;2023-01-06T09:48:05;3.80;;;1.58;;
39788;SDS011;25478;42.626;23.320;2023-01-06T09:50:49;4.53;;;2.07;;
39788;SDS011;25478;42.626;23.320;2023-01-06T09:53:21;3.28;;;1.50;;
39788;SDS011;25478;42.626;23.320;2023-01-06T09:55:53;4.17;;;1.47;;
39788;SDS011;25478;42.626;23.320;2023-01-06T09:58:26;2.83;;;1.60;;
39788;SDS011;25478;42.626;23.320;2023-01-06T10:01:06;3.23;;;1.70;;
39788;SDS011;25478;42.626;23.320;2023-01-06T10:03:37;3.70;;;2.03;;
39788;SDS011;25478;42.626;23.320;2023-01-06T10:22:34;3.63;;;1.80;;
39788;SDS011;25478;42.626;23.320;2023-01-06T10:27:52;2.93;;;1.70;;
39788;SDS011;25478;42.626;23.320;2023-01-06T10:30:43;3.43;;;1.30;;
39788;SDS011;25478;42.626;23.320;2023-01-06T10:33:20;2.47;;;1.33;;
39788;SDS011;25478;42.626;23.320;2023-01-06T10:35:48;3.50;;;2.10;;
39788;SDS011;25478;42.626;23.320;2023-01-06T10:38:15;3.43;;;1.73;;
39788;SDS011;25478;42.626;23.320;2023-01-06T10:40:42;4.03;;;2.00;;
39788;SDS011;25478;42.626;23.320;2023-01-06T10:43:09;4.93;;;1.70;;
39788;SDS011;25478;42.626;23.320;2023-01-06T10:48:08;4.40;;;2.33;;
39788;SDS011;25478;42.626;23.320;2023-01-06T10:50:36;5.83;;;3.30;;
39788;SDS011;25478;42.626;23.320;2023-01-06T10:53:03;3.70;;;2.43;;
39788;SDS011;25478;42.626;23.320;2023-01-06T11:00:54;3.70;;;2.07;;
39788;SDS011;25478;42.626;23.320;2023-01-06T11:03:21;4.22;;;1.98;;
39788;SDS011;25478;42.626;23.320;2023-01-06T11:05:47;3.90;;;1.97;;
39788;SDS011;25478;42.626;23.320;2023-01-06T11:08:23;6.30;;;2.17;;
39788;SDS011;25478;42.626;23.320;2023-01-06T11:13:28;5.17;;;2.00;;
39788;SDS011;25478;42.626;23.320;2023-01-06T11:15:55;4.37;;;2.20;;
39788;SDS011;25478;42.626;23.320;2023-01-06T11:18:26;3.77;;;2.40;;
39788;SDS011;25478;42.626;23.320;2023-01-06T11:21:04;4.80;;;2.40;;
39788;SDS011;25478;42.626;23.320;2023-01-06T11:23:36;4.97;;;2.60;;
39788;SDS011;25478;42.626;23.320;2023-01-06T11:26:11;5.47;;;2.30;;
39788;SDS011;25478;42.626;23.320;2023-01-06T11:28:46;4.97;;;2.67;;
39788;SDS011;25478;42.626;23.320;2023-01-06T11:33:45;5.80;;;2.50;;
39788;SDS011;25478;42.626;23.320;2023-01-06T11:36:13;5.27;;;2.13;;
39788;SDS011;25478;42.626;23.320;2023-01-06T11:38:41;4.33;;;1.60;;
39788;SDS011;25478;42.626;23.320;2023-01-06T11:41:15;7.17;;;2.53;;
39788;SDS011;25478;42.626;23.320;2023-01-06T11:43:47;4.63;;;1.90;;
39788;SDS011;25478;42.626;23.320;2023-01-06T11:46:13;4.67;;;1.87;;
39788;SDS011;25478;42.626;23.320;2023-01-06T11:48:45;4.23;;;2.00;;
39788;SDS011;25478;42.626;23.320;2023-01-06T11:51:12;3.23;;;1.67;;
39788;SDS011;25478;42.626;23.320;2023-01-06T11:53:39;4.20;;;1.80;;
39788;SDS011;25478;42.626;23.320;2023-01-06T11:56:20;6.53;;;2.37;;
39788;SDS011;25478;42.626;23.320;2023-01-06T12:01:46;3.50;;;1.77;;
39788;SDS011;25478;42.626;23.320;2023-01-06T12:04:27;5.77;;;1.90;;
39788;SDS011;25478;42.626;23.320;2023-01-06T12:07:07;3.50;;;1.77;;
39788;SDS011;25478;42.626;23.320;2023-01-06T12:09:41;3.30;;;1.73;;
39788;SDS011;25478;42.626;23.320;2023-01-06T12:12:17;5.23;;;1.73;;
39788;SDS011;25478;42.626;23.320;2023-01-06T12:14:45;5.17;;;2.10;;
39788;SDS011;25478;42.626;23.320;2023-01-06T12:19:56;3.73;;;2.30;;
39788;SDS011;25478;42.626;23.320;2023-01-06T12:22:31;3.23;;;1.70;;
39788;SDS011;25478;42.626;23.320;2023-01-06T12:25:01;3.00;;;1.53;;
39788;SDS011;25478;42.626;23.320;2023-01-06T12:27:30;4.57;;;2.20;;
39788;SDS011;25478;42.626;23.320;2023-01-06T12:30:00;3.60;;;2.23;;
39788;SDS011;25478;42.626;23.320;2023-01-06T12:32:30;5.60;;;2.20;;
39788;SDS011;25478;42.626;23.320;2023-01-06T12:35:03;3.90;;;2.07;;
39788;SDS011;25478;42.626;23.320;2023-01-06T12:37:55;4.97;;;2.07;;
39788;SDS011;25478;42.626;23.320;2023-01-06T12:40:26;6.50;;;1.97;;
39788;SDS011;25478;42.626;23.320;2023-01-06T12:43:19;5.10;;;2.10;;
39788;SDS011;25478;42.626;23.320;2023-01-06T12:51:19;5.03;;;2.00;;
39788;SDS011;25478;42.626;23.320;2023-01-06T12:54:01;3.83;;;2.23;;
39788;SDS011;25478;42.626;23.320;2023-01-06T12:56:54;5.73;;;2.33;;
39788;SDS011;25478;42.626;23.320;2023-01-06T12:59:36;4.70;;;2.00;;
39788;SDS011;25478;42.626;23.320;2023-01-06T13:10:35;7.30;;;2.70;;
39788;SDS011;25478;42.626;23.320;2023-01-06T13:15:53;5.43;;;2.67;;
39788;SDS011;25478;42.626;23.320;2023-01-06T13:20:58;3.83;;;2.60;;
39788;SDS011;25478;42.626;23.320;2023-01-06T13:39:48;6.70;;;2.97;;
39788;SDS011;25478;42.626;23.320;2023-01-06T13:42:45;7.60;;;3.40;;
39788;SDS011;25478;42.626;23.320;2023-01-06T13:45:27;8.17;;;3.00;;
39788;SDS011;25478;42.626;23.320;2023-01-06T13:47:57;6.93;;;3.70;;
39788;SDS011;25478;42.626;23.320;2023-01-06T13:50:25;6.37;;;2.70;;
39788;SDS011;25478;42.626;23.320;2023-01-06T13:52:51;5.50;;;2.97;;
39788;SDS011;25478;42.626;23.320;2023-01-06T13:57:49;6.93;;;3.27;;
39788;SDS011;25478;42.626;23.320;2023-01-06T14:00:18;6.20;;;3.00;;
39788;SDS011;25478;42.626;23.320;2023-01-06T14:07:50;7.47;;;4.27;;
39788;SDS011;25478;42.626;23.320;2023-01-06T14:13:02;9.00;;;4.60;;
39788;SDS011;25478;42.626;23.320;2023-01-06T14:15:32;7.30;;;3.80;;
39788;SDS011;25478;42.626;23.320;2023-01-06T14:18:00;6.10;;;3.00;;
39788;SDS011;25478;42.626;23.320;2023-01-06T14:22:59;5.83;;;3.10;;
39788;SDS011;25478;42.626;23.320;2023-01-06T14:25:48;7.13;;;4.03;;
39788;SDS011;25478;42.626;23.320;2023-01-06T14:30:44;8.10;;;4.33;;
39788;SDS011;25478;42.626;23.320;2023-01-06T14:35:58;4.97;;;3.47;;
39788;SDS011;25478;42.626;23.320;2023-01-06T14:38:33;7.20;;;3.70;;
39788;SDS011;25478;42.626;23.320;2023-01-06T14:41:12;8.73;;;3.73;;
39788;SDS011;25478;42.626;23.320;2023-01-06T14:44:02;8.13;;;3.27;;
39788;SDS011;25478;42.626;23.320;2023-01-06T14:46:38;5.47;;;2.90;;
39788;SDS011;25478;42.626;23.320;2023-01-06T14:49:18;7.70;;;3.93;;
39788;SDS011;25478;42.626;23.320;2023-01-06T14:51:49;14.27;;;3.60;;
39788;SDS011;25478;42.626;23.320;2023-01-06T14:54:24;6.83;;;2.80;;
39788;SDS011;25478;42.626;23.320;2023-01-06T14:56:58;8.00;;;3.30;;
39788;SDS011;25478;42.626;23.320;2023-01-06T14:59:25;8.07;;;3.47;;
39788;SDS011;25478;42.626;23.320;2023-01-06T15:04:26;7.53;;;3.93;;
39788;SDS011;25478;42.626;23.320;2023-01-06T15:06:55;7.70;;;4.17;;
39788;SDS011;25478;42.626;23.320;2023-01-06T15:09:21;6.73;;;3.40;;
39788;SDS011;25478;42.626;23.320;2023-01-06T15:11:47;8.47;;;4.50;;
39788;SDS011;25478;42.626;23.320;2023-01-06T15:16:55;6.53;;;3.73;;
39788;SDS011;25478;42.626;23.320;2023-01-06T15:19:24;7.20;;;3.57;;
39788;SDS011;25478;42.626;23.320;2023-01-06T15:21:50;8.33;;;3.13;;
39788;SDS011;25478;42.626;23.320;2023-01-06T15:24:19;9.23;;;4.13;;
39788;SDS011;25478;42.626;23.320;2023-01-06T15:26:50;9.50;;;4.30;;
39788;SDS011;25478;42.626;23.320;2023-01-06T15:29:18;9.43;;;5.50;;
39788;SDS011;25478;42.626;23.320;2023-01-06T15:31:46;7.00;;;3.80;;
39788;SDS011;25478;42.626;23.320;2023-01-06T15:34:18;10.37;;;4.57;;
39788;SDS011;25478;42.626;23.320;2023-01-06T15:36:46;6.43;;;3.90;;
39788;SDS011;25478;42.626;23.320;2023-01-06T15:39:15;42.30;;;17.60;;
39788;SDS011;25478;42.626;23.320;2023-01-06T15:41:47;19.27;;;10.70;;
39788;SDS011;25478;42.626;23.320;2023-01-06T15:47:04;8.60;;;5.80;;
39788;SDS011;25478;42.626;23.320;2023-01-06T15:49:35;9.53;;;4.67;;
39788;SDS011;25478;42.626;23.320;2023-01-06T15:52:06;9.03;;;4.73;;
39788;SDS011;25478;42.626;23.320;2023-01-06T15:54:42;9.87;;;5.23;;
39788;SDS011;25478;42.626;23.320;2023-01-06T15:57:10;10.63;;;5.10;;
39788;SDS011;25478;42.626;23.320;2023-01-06T15:59:37;11.07;;;5.00;;
39788;SDS011;25478;42.626;23.320;2023-01-06T16:02:04;8.40;;;4.40;;
39788;SDS011;25478;42.626;23.320;2023-01-06T16:04:42;15.17;;;7.20;;
39788;SDS011;25478;42.626;23.320;2023-01-06T16:09:47;8.20;;;5.17;;
39788;SDS011;25478;42.626;23.320;2023-01-06T16:12:19;9.57;;;5.17;;
39788;SDS011;25478;42.626;23.320;2023-01-06T16:14:45;13.83;;;5.97;;
39788;SDS011;25478;42.626;23.320;2023-01-06T16:19:43;10.00;;;5.83;;
39788;SDS011;25478;42.626;23.320;2023-01-06T16:22:24;12.73;;;6.30;;
39788;SDS011;25478;42.626;23.320;2023-01-06T16:24:54;14.73;;;6.53;;
39788;SDS011;25478;42.626;23.320;2023-01-06T16:27:22;10.10;;;4.83;;
39788;SDS011;25478;42.626;23.320;2023-01-06T16:30:05;12.50;;;5.27;;
39788;SDS011;25478;42.626;23.320;2023-01-06T16:33:01;9.40;;;4.87;;
39788;SDS011;25478;42.626;23.320;2023-01-06T16:35:31;9.50;;;4.83;;
39788;SDS011;25478;42.626;23.320;2023-01-06T16:37:58;10.03;;;4.43;;
39788;SDS011;25478;42.626;23.320;2023-01-06T16:40:25;7.47;;;4.00;;
39788;SDS011;25478;42.626;23.320;2023-01-06T16:42:56;9.50;;;4.13;;
39788;SDS011;25478;42.626;23.320;2023-01-06T16:47:55;10.40;;;5.60;;
39788;SDS011;25478;42.626;23.320;2023-01-06T16:50:22;9.93;;;5.83;;
39788;SDS011;25478;42.626;23.320;2023-01-06T16:55:36;8.80;;;3.97;;
39788;SDS011;25478;42.626;23.320;2023-01-06T17:00:38;10.13;;;5.60;;
39788;SDS011;25478;42.626;23.320;2023-01-06T17:03:10;18.00;;;7.20;;
39788;SDS011;25478;42.626;23.320;2023-01-06T17:05:38;10.65;;;5.80;;
39788;SDS011;25478;42.626;23.320;2023-01-06T17:08:09;7.50;;;4.57;;
39788;SDS011;25478;42.626;23.320;2023-01-06T17:10:38;12.27;;;6.50;;
39788;SDS011;25478;42.626;23.320;2023-01-06T17:13:04;14.33;;;6.40;;
39788;SDS011;25478;42.626;23.320;2023-01-06T17:15:56;12.93;;;6.45;;
39788;SDS011;25478;42.626;23.320;2023-01-06T17:18:24;13.23;;;7.13;;
39788;SDS011;25478;42.626;23.320;2023-01-06T17:20:52;11.23;;;6.53;;
39788;SDS011;25478;42.626;23.320;2023-01-06T17:23:23;9.57;;;5.40;;
39788;SDS011;25478;42.626;23.320;2023-01-06T17:25:49;13.77;;;6.57;;